sensor_id;sensor_type;location;lat;lon;timestamp;P1;durP1;ratioP1;P2;durP2;ratioP2
78610;SDS011;67932;50.474;4.436;2023-04-03T00:01:07;11.15;;;7.13;;
78610;SDS011;67932;50.474;4.436;2023-04-03T00:03:33;12.57;;;7.25;;
78610;SDS011;67932;50.474;4.436;2023-04-03T00:06:00;14.65;;;7.47;;
78610;SDS011;67932;50.474;4.436;2023-04-03T00:08:27;15.23;;;7.22;;
78610;SDS011;67932;50.474;4.436;2023-04-03T00:10:56;11.30;;;6.63;;
78610;SDS011;67932;50.474;4.436;2023-04-03T00:13:22;12.38;;;6.95;;
78610;SDS011;67932;50.474;4.436;2023-04-03T00:15:48;12.20;;;6.78;;
78610;SDS011;67932;50.474;4.436;2023-04-03T00:18:15;10.90;;;6.25;;
78610;SDS011;67932;50.474;4.436;2023-04-03T00:20:41;12.15;;;7.40;;
78610;SDS011;67932;50.474;4.436;2023-04-03T00:23:07;15.52;;;7.05;;
78610;SDS011;67932;50.474;4.436;2023-04-03T00:25:33;12.27;;;7.75;;
78610;SDS011;67932;50.474;4.436;2023-04-03T00:27:59;13.45;;;6.60;;
78610;SDS011;67932;50.474;4.436;2023-04-03T00:30:26;13.15;;;6.72;;
78610;SDS011;67932;50.474;4.436;2023-04-03T00:32:52;13.68;;;7.47;;
78610;SDS011;67932;50.474;4.436;2023-04-03T00:35:19;12.35;;;6.88;;
78610;SDS011;67932;50.474;4.436;2023-04-03T00:37:46;11.55;;;6.70;;
78610;SDS011;67932;50.474;4.436;2023-04-03T00:40:13;11.60;;;6.68;;
78610;SDS011;67932;50.474;4.436;2023-04-03T00:42:40;10.88;;;6.50;;
78610;SDS011;67932;50.474;4.436;2023-04-03T00:47:37;14.60;;;7.72;;
78610;SDS011;67932;50.474;4.436;2023-04-03T00:50:04;15.60;;;7.53;;
78610;SDS011;67932;50.474;4.436;2023-04-03T00:52:31;12.60;;;7.05;;
78610;SDS011;67932;50.474;4.436;2023-04-03T00:54:58;12.30;;;7.43;;
78610;SDS011;67932;50.474;4.436;2023-04-03T00:57:25;15.02;;;7.32;;
78610;SDS011;67932;50.474;4.436;2023-04-03T00:59:54;12.93;;;6.85;;
78610;SDS011;67932;50.474;4.436;2023-04-03T01:02:22;13.25;;;6.72;;
78610;SDS011;67932;50.474;4.436;2023-04-03T01:04:48;12.68;;;6.82;;
78610;SDS011;67932;50.474;4.436;2023-04-03T01:09:44;15.75;;;8.07;;
78610;SDS011;67932;50.474;4.436;2023-04-03T01:14:42;11.48;;;7.20;;
78610;SDS011;67932;50.474;4.436;2023-04-03T01:17:24;14.70;;;6.85;;
78610;SDS011;67932;50.474;4.436;2023-04-03T01:19:54;11.88;;;6.45;;
78610;SDS011;67932;50.474;4.436;2023-04-03T01:22:25;10.50;;;6.43;;
78610;SDS011;67932;50.474;4.436;2023-04-03T01:27:21;13.25;;;6.80;;
78610;SDS011;67932;50.474;4.436;2023-04-03T01:29:48;12.20;;;6.93;;
78610;SDS011;67932;50.474;4.436;2023-04-03T01:32:14;14.77;;;7.38;;
78610;SDS011;67932;50.474;4.436;2023-04-03T01:34:40;13.88;;;7.25;;
78610;SDS011;67932;50.474;4.436;2023-04-03T01:37:06;12.93;;;6.45;;
78610;SDS011;67932;50.474;4.436;2023-04-03T01:39:33;12.60;;;7.25;;
78610;SDS011;67932;50.474;4.436;2023-04-03T01:41:59;11.98;;;6.97;;
78610;SDS011;67932;50.474;4.436;2023-04-03T01:44:26;12.57;;;6.85;;
78610;SDS011;67932;50.474;4.436;2023-04-03T01:46:52;12.63;;;7.50;;
78610;SDS011;67932;50.474;4.436;2023-04-03T01:49:18;13.23;;;6.82;;
78610;SDS011;67932;50.474;4.436;2023-04-03T01:51:44;13.75;;;6.95;;
78610;SDS011;67932;50.474;4.436;2023-04-03T01:54:11;12.90;;;7.65;;
78610;SDS011;67932;50.474;4.436;2023-04-03T01:56:37;13.38;;;7.35;;
78610;SDS011;67932;50.474;4.436;2023-04-03T01:59:04;13.43;;;6.93;;
78610;SDS011;67932;50.474;4.436;2023-04-03T02:01:30;11.18;;;6.55;;
78610;SDS011;67932;50.474;4.436;2023-04-03T02:03:57;12.43;;;7.60;;
78610;SDS011;67932;50.474;4.436;2023-04-03T02:06:23;13.13;;;6.63;;
78610;SDS011;67932;50.474;4.436;2023-04-03T02:08:50;10.63;;;6.70;;
78610;SDS011;67932;50.474;4.436;2023-04-03T02:11:16;9.95;;;6.95;;
78610;SDS011;67932;50.474;4.436;2023-04-03T02:13:42;11.80;;;7.18;;
78610;SDS011;67932;50.474;4.436;2023-04-03T02:16:09;12.52;;;6.82;;
78610;SDS011;67932;50.474;4.436;2023-04-03T02:18:36;12.80;;;6.43;;
78610;SDS011;67932;50.474;4.436;2023-04-03T02:21:02;15.00;;;6.97;;
78610;SDS011;67932;50.474;4.436;2023-04-03T02:23:29;12.20;;;6.93;;
78610;SDS011;67932;50.474;4.436;2023-04-03T02:26:05;12.23;;;7.03;;
78610;SDS011;67932;50.474;4.436;2023-04-03T02:28:32;10.88;;;6.13;;
78610;SDS011;67932;50.474;4.436;2023-04-03T02:30:59;11.70;;;6.63;;
78610;SDS011;67932;50.474;4.436;2023-04-03T02:33:25;14.40;;;7.47;;
78610;SDS011;67932;50.474;4.436;2023-04-03T02:35:56;11.13;;;7.03;;
78610;SDS011;67932;50.474;4.436;2023-04-03T02:38:23;11.55;;;6.60;;
78610;SDS011;67932;50.474;4.436;2023-04-03T02:40:50;14.57;;;7.70;;
78610;SDS011;67932;50.474;4.436;2023-04-03T02:43:16;16.13;;;8.05;;
78610;SDS011;67932;50.474;4.436;2023-04-03T02:45:43;14.18;;;7.35;;
78610;SDS011;67932;50.474;4.436;2023-04-03T02:48:09;11.88;;;6.72;;
78610;SDS011;67932;50.474;4.436;2023-04-03T02:50:36;13.77;;;6.95;;
78610;SDS011;67932;50.474;4.436;2023-04-03T02:53:02;12.98;;;7.38;;
78610;SDS011;67932;50.474;4.436;2023-04-03T02:55:28;14.52;;;8.13;;
78610;SDS011;67932;50.474;4.436;2023-04-03T02:57:55;13.02;;;7.30;;
78610;SDS011;67932;50.474;4.436;2023-04-03T03:00:21;15.20;;;7.78;;
78610;SDS011;67932;50.474;4.436;2023-04-03T03:02:48;16.83;;;7.32;;
78610;SDS011;67932;50.474;4.436;2023-04-03T03:05:14;13.93;;;7.00;;
78610;SDS011;67932;50.474;4.436;2023-04-03T03:07:41;15.15;;;8.10;;
78610;SDS011;67932;50.474;4.436;2023-04-03T03:10:07;16.17;;;7.38;;
78610;SDS011;67932;50.474;4.436;2023-04-03T03:12:33;13.38;;;7.90;;
78610;SDS011;67932;50.474;4.436;2023-04-03T03:14:59;12.02;;;6.85;;
78610;SDS011;67932;50.474;4.436;2023-04-03T03:17:26;13.00;;;7.40;;
78610;SDS011;67932;50.474;4.436;2023-04-03T03:19:52;14.80;;;7.82;;
78610;SDS011;67932;50.474;4.436;2023-04-03T03:22:19;16.00;;;7.30;;
78610;SDS011;67932;50.474;4.436;2023-04-03T03:24:46;14.48;;;7.85;;
78610;SDS011;67932;50.474;4.436;2023-04-03T03:27:12;16.55;;;8.32;;
78610;SDS011;67932;50.474;4.436;2023-04-03T03:29:38;14.52;;;7.80;;
78610;SDS011;67932;50.474;4.436;2023-04-03T03:32:05;16.85;;;8.13;;
78610;SDS011;67932;50.474;4.436;2023-04-03T03:34:31;12.05;;;7.53;;
78610;SDS011;67932;50.474;4.436;2023-04-03T03:36:57;14.57;;;7.68;;
78610;SDS011;67932;50.474;4.436;2023-04-03T03:39:24;13.98;;;7.30;;
78610;SDS011;67932;50.474;4.436;2023-04-03T03:41:50;16.90;;;8.43;;
78610;SDS011;67932;50.474;4.436;2023-04-03T03:44:18;13.98;;;8.00;;
78610;SDS011;67932;50.474;4.436;2023-04-03T03:46:45;13.32;;;7.50;;
78610;SDS011;67932;50.474;4.436;2023-04-03T03:49:11;13.00;;;7.47;;
78610;SDS011;67932;50.474;4.436;2023-04-03T03:51:38;13.88;;;7.00;;
78610;SDS011;67932;50.474;4.436;2023-04-03T03:54:04;15.52;;;9.13;;
78610;SDS011;67932;50.474;4.436;2023-04-03T03:56:31;17.27;;;8.57;;
78610;SDS011;67932;50.474;4.436;2023-04-03T03:58:58;15.55;;;8.05;;
78610;SDS011;67932;50.474;4.436;2023-04-03T04:01:24;15.35;;;7.75;;
78610;SDS011;67932;50.474;4.436;2023-04-03T04:03:51;14.63;;;7.72;;
78610;SDS011;67932;50.474;4.436;2023-04-03T04:06:19;16.40;;;8.30;;
78610;SDS011;67932;50.474;4.436;2023-04-03T04:08:45;16.40;;;7.82;;
78610;SDS011;67932;50.474;4.436;2023-04-03T04:11:12;16.45;;;8.07;;
78610;SDS011;67932;50.474;4.436;2023-04-03T04:13:38;12.18;;;7.18;;
78610;SDS011;67932;50.474;4.436;2023-04-03T04:16:04;13.38;;;7.38;;
78610;SDS011;67932;50.474;4.436;2023-04-03T04:18:31;15.27;;;7.90;;
78610;SDS011;67932;50.474;4.436;2023-04-03T04:20:57;13.00;;;7.18;;
78610;SDS011;67932;50.474;4.436;2023-04-03T04:23:23;14.63;;;7.30;;
78610;SDS011;67932;50.474;4.436;2023-04-03T04:25:50;13.60;;;7.30;;
78610;SDS011;67932;50.474;4.436;2023-04-03T04:28:17;11.70;;;6.93;;
78610;SDS011;67932;50.474;4.436;2023-04-03T04:30:44;12.48;;;7.20;;
78610;SDS011;67932;50.474;4.436;2023-04-03T04:33:11;13.85;;;7.47;;
78610;SDS011;67932;50.474;4.436;2023-04-03T04:35:38;16.42;;;7.57;;
78610;SDS011;67932;50.474;4.436;2023-04-03T04:38:06;13.60;;;6.95;;
78610;SDS011;67932;50.474;4.436;2023-04-03T04:40:33;11.50;;;6.35;;
78610;SDS011;67932;50.474;4.436;2023-04-03T04:42:59;14.80;;;6.90;;
78610;SDS011;67932;50.474;4.436;2023-04-03T04:45:26;14.02;;;7.32;;
78610;SDS011;67932;50.474;4.436;2023-04-03T04:47:54;12.18;;;7.32;;
78610;SDS011;67932;50.474;4.436;2023-04-03T04:50:20;12.73;;;6.70;;
78610;SDS011;67932;50.474;4.436;2023-04-03T04:52:47;11.65;;;7.05;;
78610;SDS011;67932;50.474;4.436;2023-04-03T04:55:28;12.10;;;6.68;;
78610;SDS011;67932;50.474;4.436;2023-04-03T04:57:55;12.77;;;6.78;;
78610;SDS011;67932;50.474;4.436;2023-04-03T05:00:21;13.40;;;6.68;;
78610;SDS011;67932;50.474;4.436;2023-04-03T05:02:47;12.50;;;6.55;;
78610;SDS011;67932;50.474;4.436;2023-04-03T05:05:13;13.20;;;6.95;;
78610;SDS011;67932;50.474;4.436;2023-04-03T05:07:39;12.50;;;7.57;;
78610;SDS011;67932;50.474;4.436;2023-04-03T05:10:06;12.88;;;6.68;;
78610;SDS011;67932;50.474;4.436;2023-04-03T05:12:32;11.95;;;7.13;;
78610;SDS011;67932;50.474;4.436;2023-04-03T05:14:58;15.00;;;6.88;;
78610;SDS011;67932;50.474;4.436;2023-04-03T05:17:24;12.70;;;7.00;;
78610;SDS011;67932;50.474;4.436;2023-04-03T05:19:51;15.68;;;7.63;;
78610;SDS011;67932;50.474;4.436;2023-04-03T05:22:17;15.48;;;7.60;;
78610;SDS011;67932;50.474;4.436;2023-04-03T05:27:09;14.50;;;6.78;;
78610;SDS011;67932;50.474;4.436;2023-04-03T05:29:35;12.80;;;7.32;;
78610;SDS011;67932;50.474;4.436;2023-04-03T05:32:02;11.82;;;6.70;;
78610;SDS011;67932;50.474;4.436;2023-04-03T05:34:28;13.23;;;6.85;;
78610;SDS011;67932;50.474;4.436;2023-04-03T05:36:54;13.10;;;7.63;;
78610;SDS011;67932;50.474;4.436;2023-04-03T05:41:47;15.52;;;7.38;;
78610;SDS011;67932;50.474;4.436;2023-04-03T05:44:13;16.63;;;7.43;;
78610;SDS011;67932;50.474;4.436;2023-04-03T05:46:40;13.63;;;7.40;;
78610;SDS011;67932;50.474;4.436;2023-04-03T05:49:06;10.95;;;7.03;;
78610;SDS011;67932;50.474;4.436;2023-04-03T05:51:36;13.85;;;7.55;;
78610;SDS011;67932;50.474;4.436;2023-04-03T05:56:34;13.20;;;7.45;;
78610;SDS011;67932;50.474;4.436;2023-04-03T05:59:00;12.75;;;7.05;;
78610;SDS011;67932;50.474;4.436;2023-04-03T06:01:26;17.77;;;9.05;;
78610;SDS011;67932;50.474;4.436;2023-04-03T06:03:56;14.93;;;7.38;;
78610;SDS011;67932;50.474;4.436;2023-04-03T06:06:23;11.98;;;7.20;;
78610;SDS011;67932;50.474;4.436;2023-04-03T06:08:49;11.85;;;6.15;;
78610;SDS011;67932;50.474;4.436;2023-04-03T06:11:15;12.95;;;6.95;;
78610;SDS011;67932;50.474;4.436;2023-04-03T06:13:42;10.52;;;6.15;;
78610;SDS011;67932;50.474;4.436;2023-04-03T06:16:09;11.27;;;6.70;;
78610;SDS011;67932;50.474;4.436;2023-04-03T06:18:40;10.90;;;5.70;;
78610;SDS011;67932;50.474;4.436;2023-04-03T06:21:06;9.68;;;5.57;;
78610;SDS011;67932;50.474;4.436;2023-04-03T06:23:33;10.43;;;6.20;;
78610;SDS011;67932;50.474;4.436;2023-04-03T06:25:59;10.73;;;5.55;;
78610;SDS011;67932;50.474;4.436;2023-04-03T06:28:25;12.63;;;6.05;;
78610;SDS011;67932;50.474;4.436;2023-04-03T06:30:51;13.65;;;7.25;;
78610;SDS011;67932;50.474;4.436;2023-04-03T06:33:17;10.10;;;6.22;;
78610;SDS011;67932;50.474;4.436;2023-04-03T06:35:43;14.80;;;7.22;;
78610;SDS011;67932;50.474;4.436;2023-04-03T06:38:10;10.45;;;6.20;;
78610;SDS011;67932;50.474;4.436;2023-04-03T06:40:36;13.65;;;6.25;;
78610;SDS011;67932;50.474;4.436;2023-04-03T06:43:03;10.95;;;6.70;;
78610;SDS011;67932;50.474;4.436;2023-04-03T06:45:30;12.65;;;6.53;;
78610;SDS011;67932;50.474;4.436;2023-04-03T06:47:56;11.13;;;6.10;;
78610;SDS011;67932;50.474;4.436;2023-04-03T06:50:22;10.13;;;6.22;;
78610;SDS011;67932;50.474;4.436;2023-04-03T06:52:48;11.88;;;6.40;;
78610;SDS011;67932;50.474;4.436;2023-04-03T06:55:14;9.25;;;5.97;;
78610;SDS011;67932;50.474;4.436;2023-04-03T06:57:40;14.15;;;6.15;;
78610;SDS011;67932;50.474;4.436;2023-04-03T07:00:07;12.40;;;6.28;;
78610;SDS011;67932;50.474;4.436;2023-04-03T07:02:34;12.68;;;6.47;;
78610;SDS011;67932;50.474;4.436;2023-04-03T07:05:01;12.88;;;7.32;;
78610;SDS011;67932;50.474;4.436;2023-04-03T07:07:27;13.95;;;6.45;;
78610;SDS011;67932;50.474;4.436;2023-04-03T07:09:53;13.15;;;6.40;;
78610;SDS011;67932;50.474;4.436;2023-04-03T07:12:20;12.70;;;6.57;;
78610;SDS011;67932;50.474;4.436;2023-04-03T07:14:46;10.70;;;6.25;;
78610;SDS011;67932;50.474;4.436;2023-04-03T07:17:12;12.93;;;7.65;;
78610;SDS011;67932;50.474;4.436;2023-04-03T07:19:40;9.82;;;6.15;;
78610;SDS011;67932;50.474;4.436;2023-04-03T07:22:06;14.00;;;7.32;;
78610;SDS011;67932;50.474;4.436;2023-04-03T07:24:32;11.95;;;6.97;;
78610;SDS011;67932;50.474;4.436;2023-04-03T07:27:00;10.00;;;6.32;;
78610;SDS011;67932;50.474;4.436;2023-04-03T07:29:27;12.77;;;7.30;;
78610;SDS011;67932;50.474;4.436;2023-04-03T07:31:53;12.02;;;7.55;;
78610;SDS011;67932;50.474;4.436;2023-04-03T07:34:20;11.98;;;7.38;;
78610;SDS011;67932;50.474;4.436;2023-04-03T07:36:47;11.88;;;6.57;;
78610;SDS011;67932;50.474;4.436;2023-04-03T07:39:16;14.40;;;7.97;;
78610;SDS011;67932;50.474;4.436;2023-04-03T07:41:42;13.27;;;7.32;;
78610;SDS011;67932;50.474;4.436;2023-04-03T07:44:08;11.48;;;7.65;;
78610;SDS011;67932;50.474;4.436;2023-04-03T07:46:37;10.07;;;6.25;;
78610;SDS011;67932;50.474;4.436;2023-04-03T07:49:03;11.25;;;6.22;;
78610;SDS011;67932;50.474;4.436;2023-04-03T07:51:29;10.10;;;6.53;;
78610;SDS011;67932;50.474;4.436;2023-04-03T07:53:56;11.45;;;6.75;;
78610;SDS011;67932;50.474;4.436;2023-04-03T07:56:22;10.85;;;6.25;;
78610;SDS011;67932;50.474;4.436;2023-04-03T07:58:48;9.50;;;6.00;;
78610;SDS011;67932;50.474;4.436;2023-04-03T08:01:14;9.05;;;5.57;;
78610;SDS011;67932;50.474;4.436;2023-04-03T08:03:40;9.82;;;5.82;;
78610;SDS011;67932;50.474;4.436;2023-04-03T08:06:07;7.90;;;5.35;;
78610;SDS011;67932;50.474;4.436;2023-04-03T08:08:33;9.95;;;5.45;;
78610;SDS011;67932;50.474;4.436;2023-04-03T08:11:00;11.27;;;5.15;;
78610;SDS011;67932;50.474;4.436;2023-04-03T08:13:28;8.63;;;5.22;;
78610;SDS011;67932;50.474;4.436;2023-04-03T08:15:55;7.22;;;5.30;;
78610;SDS011;67932;50.474;4.436;2023-04-03T08:18:22;6.63;;;4.53;;
78610;SDS011;67932;50.474;4.436;2023-04-03T08:20:49;8.20;;;5.10;;
78610;SDS011;67932;50.474;4.436;2023-04-03T08:23:16;8.85;;;5.28;;
78610;SDS011;67932;50.474;4.436;2023-04-03T08:25:49;6.78;;;4.45;;
78610;SDS011;67932;50.474;4.436;2023-04-03T08:28:16;8.50;;;5.00;;
78610;SDS011;67932;50.474;4.436;2023-04-03T08:30:42;10.65;;;5.68;;
78610;SDS011;67932;50.474;4.436;2023-04-03T08:33:09;9.02;;;5.00;;
78610;SDS011;67932;50.474;4.436;2023-04-03T08:35:39;9.25;;;5.25;;
78610;SDS011;67932;50.474;4.436;2023-04-03T08:38:05;6.65;;;4.50;;
78610;SDS011;67932;50.474;4.436;2023-04-03T08:40:31;5.35;;;3.65;;
78610;SDS011;67932;50.474;4.436;2023-04-03T08:45:41;6.45;;;4.60;;
78610;SDS011;67932;50.474;4.436;2023-04-03T08:48:25;6.43;;;3.90;;
78610;SDS011;67932;50.474;4.436;2023-04-03T08:51:03;8.25;;;4.00;;
78610;SDS011;67932;50.474;4.436;2023-04-03T08:53:34;8.23;;;4.43;;
78610;SDS011;67932;50.474;4.436;2023-04-03T08:56:08;9.00;;;4.53;;
78610;SDS011;67932;50.474;4.436;2023-04-03T09:01:16;9.10;;;4.20;;
78610;SDS011;67932;50.474;4.436;2023-04-03T09:03:43;9.43;;;3.90;;
78610;SDS011;67932;50.474;4.436;2023-04-03T09:06:20;9.52;;;4.07;;
78610;SDS011;67932;50.474;4.436;2023-04-03T09:09:00;6.60;;;3.53;;
78610;SDS011;67932;50.474;4.436;2023-04-03T09:11:36;10.73;;;3.67;;
78610;SDS011;67932;50.474;4.436;2023-04-03T09:16:54;7.40;;;2.95;;
78610;SDS011;67932;50.474;4.436;2023-04-03T09:19:32;7.88;;;3.78;;
78610;SDS011;67932;50.474;4.436;2023-04-03T09:22:09;4.57;;;3.20;;
78610;SDS011;67932;50.474;4.436;2023-04-03T09:24:37;5.28;;;3.17;;
78610;SDS011;67932;50.474;4.436;2023-04-03T09:27:04;4.35;;;2.85;;
78610;SDS011;67932;50.474;4.436;2023-04-03T09:29:33;4.15;;;3.05;;
78610;SDS011;67932;50.474;4.436;2023-04-03T09:32:02;7.03;;;2.85;;
78610;SDS011;67932;50.474;4.436;2023-04-03T09:34:36;4.20;;;2.95;;
78610;SDS011;67932;50.474;4.436;2023-04-03T09:37:03;4.88;;;2.88;;
78610;SDS011;67932;50.474;4.436;2023-04-03T09:39:52;4.20;;;2.90;;
78610;SDS011;67932;50.474;4.436;2023-04-03T09:42:21;4.43;;;2.42;;
78610;SDS011;67932;50.474;4.436;2023-04-03T09:44:57;6.43;;;3.08;;
78610;SDS011;67932;50.474;4.436;2023-04-03T09:47:25;3.95;;;2.55;;
78610;SDS011;67932;50.474;4.436;2023-04-03T09:50:08;6.05;;;2.65;;
78610;SDS011;67932;50.474;4.436;2023-04-03T09:52:35;2.92;;;2.42;;
78610;SDS011;67932;50.474;4.436;2023-04-03T09:55:41;4.30;;;2.40;;
78610;SDS011;67932;50.474;4.436;2023-04-03T09:57:58;3.35;;;1.92;;
78610;SDS011;67932;50.474;4.436;2023-04-03T10:00:25;6.95;;;2.53;;
78610;SDS011;67932;50.474;4.436;2023-04-03T10:02:54;3.17;;;2.22;;
78610;SDS011;67932;50.474;4.436;2023-04-03T10:08:09;4.00;;;1.92;;
78610;SDS011;67932;50.474;4.436;2023-04-03T10:10:36;4.90;;;2.58;;
78610;SDS011;67932;50.474;4.436;2023-04-03T10:15:42;5.82;;;3.03;;
78610;SDS011;67932;50.474;4.436;2023-04-03T10:18:24;4.35;;;2.72;;
78610;SDS011;67932;50.474;4.436;2023-04-03T10:20:53;6.28;;;2.70;;
78610;SDS011;67932;50.474;4.436;2023-04-03T10:28:42;5.25;;;2.28;;
78610;SDS011;67932;50.474;4.436;2023-04-03T10:33:59;7.20;;;2.90;;
78610;SDS011;67932;50.474;4.436;2023-04-03T10:36:33;4.13;;;2.60;;
78610;SDS011;67932;50.474;4.436;2023-04-03T10:39:04;4.93;;;2.42;;
78610;SDS011;67932;50.474;4.436;2023-04-03T10:49:34;5.55;;;2.85;;
78610;SDS011;67932;50.474;4.436;2023-04-03T10:54:34;3.20;;;2.35;;
78610;SDS011;67932;50.474;4.436;2023-04-03T10:57:06;2.75;;;2.53;;
78610;SDS011;67932;50.474;4.436;2023-04-03T10:59:55;6.05;;;2.65;;
78610;SDS011;67932;50.474;4.436;2023-04-03T11:02:24;3.63;;;2.40;;
78610;SDS011;67932;50.474;4.436;2023-04-03T11:04:52;4.53;;;2.58;;
78610;SDS011;67932;50.474;4.436;2023-04-03T11:07:20;6.22;;;2.42;;
78610;SDS011;67932;50.474;4.436;2023-04-03T11:09:49;3.17;;;2.17;;
78610;SDS011;67932;50.474;4.436;2023-04-03T11:14:47;3.88;;;2.30;;
78610;SDS011;67932;50.474;4.436;2023-04-03T11:19:45;3.60;;;2.70;;
78610;SDS011;67932;50.474;4.436;2023-04-03T11:22:22;3.78;;;2.25;;
78610;SDS011;67932;50.474;4.436;2023-04-03T11:27:43;5.40;;;2.83;;
78610;SDS011;67932;50.474;4.436;2023-04-03T11:30:16;5.05;;;2.45;;
78610;SDS011;67932;50.474;4.436;2023-04-03T11:35:19;4.47;;;2.67;;
78610;SDS011;67932;50.474;4.436;2023-04-03T11:37:47;3.03;;;2.45;;
78610;SDS011;67932;50.474;4.436;2023-04-03T11:42:48;3.53;;;2.00;;
78610;SDS011;67932;50.474;4.436;2023-04-03T11:47:53;3.03;;;1.90;;
78610;SDS011;67932;50.474;4.436;2023-04-03T11:50:39;3.72;;;1.95;;
78610;SDS011;67932;50.474;4.436;2023-04-03T12:05:54;3.05;;;1.50;;
78610;SDS011;67932;50.474;4.436;2023-04-03T12:18:53;3.47;;;1.60;;
78610;SDS011;67932;50.474;4.436;2023-04-03T12:26:46;2.63;;;1.83;;
78610;SDS011;67932;50.474;4.436;2023-04-03T12:34:33;3.03;;;1.40;;
78610;SDS011;67932;50.474;4.436;2023-04-03T12:37:51;2.97;;;1.70;;
78610;SDS011;67932;50.474;4.436;2023-04-03T12:40:03;4.28;;;1.63;;
78610;SDS011;67932;50.474;4.436;2023-04-03T12:45:21;2.28;;;1.42;;
78610;SDS011;67932;50.474;4.436;2023-04-03T12:47:48;2.83;;;1.35;;
78610;SDS011;67932;50.474;4.436;2023-04-03T12:50:19;3.63;;;1.52;;
78610;SDS011;67932;50.474;4.436;2023-04-03T12:55:16;1.38;;;1.10;;
78610;SDS011;67932;50.474;4.436;2023-04-03T12:57:42;1.15;;;0.90;;
78610;SDS011;67932;50.474;4.436;2023-04-03T13:00:18;2.20;;;0.98;;
78610;SDS011;67932;50.474;4.436;2023-04-03T13:02:44;1.77;;;1.02;;
78610;SDS011;67932;50.474;4.436;2023-04-03T13:05:15;2.08;;;1.10;;
78610;SDS011;67932;50.474;4.436;2023-04-03T13:07:42;2.35;;;1.10;;
78610;SDS011;67932;50.474;4.436;2023-04-03T13:12:35;2.13;;;1.20;;
78610;SDS011;67932;50.474;4.436;2023-04-03T13:15:30;1.75;;;1.00;;
78610;SDS011;67932;50.474;4.436;2023-04-03T13:18:02;1.95;;;1.13;;
78610;SDS011;67932;50.474;4.436;2023-04-03T13:20:29;2.60;;;1.27;;
78610;SDS011;67932;50.474;4.436;2023-04-03T13:22:57;1.30;;;0.80;;
78610;SDS011;67932;50.474;4.436;2023-04-03T13:25:43;1.50;;;1.40;;
78610;SDS011;67932;50.474;4.436;2023-04-03T13:28:13;4.47;;;1.33;;
78610;SDS011;67932;50.474;4.436;2023-04-03T13:30:40;1.98;;;1.23;;
78610;SDS011;67932;50.474;4.436;2023-04-03T13:33:24;3.25;;;1.38;;
78610;SDS011;67932;50.474;4.436;2023-04-03T13:40:50;3.08;;;1.45;;
78610;SDS011;67932;50.474;4.436;2023-04-03T13:43:18;3.95;;;1.45;;
78610;SDS011;67932;50.474;4.436;2023-04-03T13:46:05;4.63;;;1.67;;
78610;SDS011;67932;50.474;4.436;2023-04-03T13:48:39;5.78;;;2.55;;
78610;SDS011;67932;50.474;4.436;2023-04-03T13:53:49;2.70;;;1.73;;
78610;SDS011;67932;50.474;4.436;2023-04-03T13:58:51;2.22;;;1.70;;
78610;SDS011;67932;50.474;4.436;2023-04-03T14:01:19;4.18;;;2.00;;
78610;SDS011;67932;50.474;4.436;2023-04-03T14:06:13;2.00;;;1.55;;
78610;SDS011;67932;50.474;4.436;2023-04-03T14:08:39;3.08;;;1.50;;
78610;SDS011;67932;50.474;4.436;2023-04-03T14:11:08;3.95;;;1.70;;
78610;SDS011;67932;50.474;4.436;2023-04-03T14:13:35;2.88;;;1.52;;
78610;SDS011;67932;50.474;4.436;2023-04-03T14:16:12;3.65;;;1.98;;
78610;SDS011;67932;50.474;4.436;2023-04-03T14:18:39;2.88;;;1.50;;
78610;SDS011;67932;50.474;4.436;2023-04-03T14:21:09;2.70;;;1.50;;
78610;SDS011;67932;50.474;4.436;2023-04-03T14:23:35;3.05;;;1.83;;
78610;SDS011;67932;50.474;4.436;2023-04-03T14:26:01;4.40;;;1.75;;
78610;SDS011;67932;50.474;4.436;2023-04-03T14:28:28;2.28;;;1.20;;
78610;SDS011;67932;50.474;4.436;2023-04-03T14:30:55;3.75;;;1.80;;
78610;SDS011;67932;50.474;4.436;2023-04-03T14:33:22;2.90;;;1.35;;
78610;SDS011;67932;50.474;4.436;2023-04-03T14:35:48;4.13;;;1.90;;
78610;SDS011;67932;50.474;4.436;2023-04-03T14:38:20;3.90;;;1.75;;
78610;SDS011;67932;50.474;4.436;2023-04-03T14:40:46;3.72;;;1.48;;
78610;SDS011;67932;50.474;4.436;2023-04-03T14:43:13;1.30;;;1.00;;
78610;SDS011;67932;50.474;4.436;2023-04-03T14:45:40;3.53;;;1.55;;
78610;SDS011;67932;50.474;4.436;2023-04-03T14:48:09;2.88;;;1.58;;
78610;SDS011;67932;50.474;4.436;2023-04-03T14:50:35;2.80;;;1.42;;
78610;SDS011;67932;50.474;4.436;2023-04-03T14:53:02;3.55;;;1.33;;
78610;SDS011;67932;50.474;4.436;2023-04-03T14:55:28;3.47;;;1.38;;
78610;SDS011;67932;50.474;4.436;2023-04-03T14:57:54;4.60;;;2.05;;
78610;SDS011;67932;50.474;4.436;2023-04-03T15:00:21;1.73;;;1.17;;
78610;SDS011;67932;50.474;4.436;2023-04-03T15:02:48;2.58;;;1.00;;
78610;SDS011;67932;50.474;4.436;2023-04-03T15:05:14;1.88;;;1.52;;
78610;SDS011;67932;50.474;4.436;2023-04-03T15:07:42;3.45;;;1.38;;
78610;SDS011;67932;50.474;4.436;2023-04-03T15:12:41;4.38;;;1.33;;
78610;SDS011;67932;50.474;4.436;2023-04-03T15:15:07;5.03;;;1.40;;
78610;SDS011;67932;50.474;4.436;2023-04-03T15:17:34;2.28;;;1.20;;
78610;SDS011;67932;50.474;4.436;2023-04-03T15:20:01;2.80;;;1.33;;
78610;SDS011;67932;50.474;4.436;2023-04-03T15:22:27;4.78;;;1.42;;
78610;SDS011;67932;50.474;4.436;2023-04-03T15:24:53;2.15;;;1.08;;
78610;SDS011;67932;50.474;4.436;2023-04-03T15:27:20;4.40;;;1.42;;
78610;SDS011;67932;50.474;4.436;2023-04-03T15:29:46;3.65;;;1.50;;
78610;SDS011;67932;50.474;4.436;2023-04-03T15:32:13;1.92;;;1.50;;
78610;SDS011;67932;50.474;4.436;2023-04-03T15:34:40;2.35;;;1.42;;
78610;SDS011;67932;50.474;4.436;2023-04-03T15:37:06;4.28;;;1.58;;
78610;SDS011;67932;50.474;4.436;2023-04-03T15:39:32;3.92;;;1.30;;
78610;SDS011;67932;50.474;4.436;2023-04-03T15:41:58;2.33;;;1.40;;
78610;SDS011;67932;50.474;4.436;2023-04-03T15:44:31;4.75;;;1.85;;
78610;SDS011;67932;50.474;4.436;2023-04-03T15:46:58;3.55;;;2.08;;
78610;SDS011;67932;50.474;4.436;2023-04-03T15:49:24;3.42;;;1.92;;
78610;SDS011;67932;50.474;4.436;2023-04-03T15:51:51;3.00;;;1.70;;
78610;SDS011;67932;50.474;4.436;2023-04-03T15:54:17;8.88;;;1.67;;
78610;SDS011;67932;50.474;4.436;2023-04-03T15:56:44;4.68;;;1.65;;
78610;SDS011;67932;50.474;4.436;2023-04-03T15:59:10;2.20;;;1.42;;
78610;SDS011;67932;50.474;4.436;2023-04-03T16:01:37;4.53;;;1.77;;
78610;SDS011;67932;50.474;4.436;2023-04-03T16:04:04;2.25;;;1.90;;
78610;SDS011;67932;50.474;4.436;2023-04-03T16:06:31;2.88;;;1.45;;
78610;SDS011;67932;50.474;4.436;2023-04-03T16:08:58;2.40;;;1.35;;
78610;SDS011;67932;50.474;4.436;2023-04-03T16:11:25;1.63;;;1.35;;
78610;SDS011;67932;50.474;4.436;2023-04-03T16:13:52;3.63;;;1.70;;
78610;SDS011;67932;50.474;4.436;2023-04-03T16:16:18;3.35;;;1.80;;
78610;SDS011;67932;50.474;4.436;2023-04-03T16:18:45;2.92;;;1.30;;
78610;SDS011;67932;50.474;4.436;2023-04-03T16:21:12;4.80;;;3.28;;
78610;SDS011;67932;50.474;4.436;2023-04-03T16:23:40;9.95;;;6.00;;
78610;SDS011;67932;50.474;4.436;2023-04-03T16:26:06;19.42;;;9.77;;
78610;SDS011;67932;50.474;4.436;2023-04-03T16:28:33;6.00;;;2.95;;
78610;SDS011;67932;50.474;4.436;2023-04-03T16:31:00;4.88;;;2.33;;
78610;SDS011;67932;50.474;4.436;2023-04-03T16:33:27;5.10;;;2.58;;
78610;SDS011;67932;50.474;4.436;2023-04-03T16:35:53;7.47;;;3.63;;
78610;SDS011;67932;50.474;4.436;2023-04-03T16:38:19;5.35;;;3.00;;
78610;SDS011;67932;50.474;4.436;2023-04-03T16:40:47;4.60;;;2.65;;
78610;SDS011;67932;50.474;4.436;2023-04-03T16:43:14;8.77;;;3.83;;
78610;SDS011;67932;50.474;4.436;2023-04-03T16:45:40;7.00;;;2.40;;
78610;SDS011;67932;50.474;4.436;2023-04-03T16:48:07;4.63;;;2.92;;